This is the latest recevied weather packets stored in our database for station/object KD7CIH. If no packets are shown the sender has not sent any weather packets the latest 10 day(s).
| Time | Temp. | Humidity | Pressure | Rain* | Wind** | Luminosity | Snow |
|---|---|---|---|---|---|---|---|
| 1787537886 | 23.89° C | 32% | 1019.2 hPa | 0 mm | - | - | - |
| 1787537587 | 25° C | 29% | 1017.4 hPa | 0 mm | - | - | - |
| 1787537288 | 25° C | 29% | 1017.1 hPa | 0 mm | - | - | - |
| 1787536986 | 25° C | 29% | 1017 hPa | 0 mm | - | - | - |
| 1787536687 | 25° C | 28% | 1016.9 hPa | 0 mm | - | - | - |
| 1787536388 | 25.56° C | 29% | 1017 hPa | 0 mm | - | - | - |
| 1787536213 | 25.56° C | 29% | 1016.8 hPa | 0 mm | - | - | - |
| 1787535787 | 25.56° C | 29% | 1016.6 hPa | 0 mm | - | - | - |
| 1787535487 | 25.56° C | 29% | 1016.6 hPa | 0 mm | - | - | - |
| 1787535187 | 25.56° C | 29% | 1016.6 hPa | 0 mm | - | - | - |
| 1787534887 | 25.56° C | 29% | 1016.6 hPa | 0 mm | - | - | - |
| 1787534716 | 25.56° C | 30% | 1016.6 hPa | 0 mm | - | - | - |
| 1787534289 | 25.56° C | 30% | 1016.9 hPa | 0 mm | - | - | - |
| 1787533987 | 25.56° C | 30% | 1016.6 hPa | 0 mm | - | - | - |
| 1787533687 | 26.11° C | 30% | 1016.6 hPa | 0 mm | - | - | - |
| 1787533386 | 26.11° C | 30% | 1016.8 hPa | 0 mm | - | - | - |
| 1787533088 | 26.67° C | 29% | 1016.8 hPa | 0 mm | - | - | - |
| 1787532788 | 26.67° C | 29% | 1016.8 hPa | 0 mm | - | - | - |
| 1787532488 | 26.11° C | 30% | 1017 hPa | 0 mm | - | - | - |
| 1787532314 | 26.11° C | 30% | 1017 hPa | 0 mm | - | - | - |
| 1787532012 | 26.11° C | 31% | 1016.9 hPa | 0 mm | - | - | - |
| 1787531586 | 26.11° C | 31% | 1016.9 hPa | 0 mm | - | - | - |
| 1787531288 | 26.11° C | 30% | 1017 hPa | 0 mm | - | - | - |
| 1787531113 | 26.67° C | 30% | 1017 hPa | 0 mm | - | - | - |
| 1787530689 | 26.67° C | 30% | 1017 hPa | 0 mm | - | - | - |
* Rain latest hour (hover to see other rain measurements)
** Current wind speed in m/s (hover to see current wind gust speed)